sensor_id;sensor_type;location;lat;lon;timestamp;P1;durP1;ratioP1;P2;durP2;ratioP2
67595;SDS011;54410;48.694;8.934;2023-05-21T00:01:49;20.05;;;13.50;;
67595;SDS011;54410;48.694;8.934;2023-05-21T00:04:15;16.70;;;11.73;;
67595;SDS011;54410;48.694;8.934;2023-05-21T00:06:41;18.33;;;13.15;;
67595;SDS011;54410;48.694;8.934;2023-05-21T00:09:07;18.55;;;13.60;;
67595;SDS011;54410;48.694;8.934;2023-05-21T00:11:34;17.50;;;12.70;;
67595;SDS011;54410;48.694;8.934;2023-05-21T00:14:00;18.90;;;13.15;;
67595;SDS011;54410;48.694;8.934;2023-05-21T00:16:26;21.10;;;14.05;;
67595;SDS011;54410;48.694;8.934;2023-05-21T00:18:52;19.88;;;13.05;;
67595;SDS011;54410;48.694;8.934;2023-05-21T00:21:18;17.33;;;13.25;;
67595;SDS011;54410;48.694;8.934;2023-05-21T00:23:50;18.52;;;13.23;;
67595;SDS011;54410;48.694;8.934;2023-05-21T00:26:20;18.77;;;13.32;;
67595;SDS011;54410;48.694;8.934;2023-05-21T00:28:46;18.50;;;13.68;;
67595;SDS011;54410;48.694;8.934;2023-05-21T00:31:12;19.23;;;13.88;;
67595;SDS011;54410;48.694;8.934;2023-05-21T00:33:38;17.00;;;13.50;;
67595;SDS011;54410;48.694;8.934;2023-05-21T00:36:04;19.52;;;13.48;;
67595;SDS011;54410;48.694;8.934;2023-05-21T00:38:30;19.80;;;14.32;;
67595;SDS011;54410;48.694;8.934;2023-05-21T00:41:05;20.83;;;14.77;;
67595;SDS011;54410;48.694;8.934;2023-05-21T00:43:31;20.95;;;15.35;;
67595;SDS011;54410;48.694;8.934;2023-05-21T00:45:57;21.00;;;13.63;;
67595;SDS011;54410;48.694;8.934;2023-05-21T00:48:23;18.48;;;13.52;;
67595;SDS011;54410;48.694;8.934;2023-05-21T00:50:49;23.92;;;14.23;;
67595;SDS011;54410;48.694;8.934;2023-05-21T00:53:14;17.73;;;13.50;;
67595;SDS011;54410;48.694;8.934;2023-05-21T00:55:43;18.85;;;13.98;;
67595;SDS011;54410;48.694;8.934;2023-05-21T00:58:09;19.33;;;14.70;;
67595;SDS011;54410;48.694;8.934;2023-05-21T01:00:35;23.23;;;15.02;;
67595;SDS011;54410;48.694;8.934;2023-05-21T01:03:07;24.92;;;14.70;;
67595;SDS011;54410;48.694;8.934;2023-05-21T01:05:33;19.88;;;14.38;;
67595;SDS011;54410;48.694;8.934;2023-05-21T01:07:59;21.55;;;14.73;;
67595;SDS011;54410;48.694;8.934;2023-05-21T01:10:25;20.25;;;13.82;;
67595;SDS011;54410;48.694;8.934;2023-05-21T01:12:51;18.33;;;14.05;;
67595;SDS011;54410;48.694;8.934;2023-05-21T01:15:17;20.15;;;14.43;;
67595;SDS011;54410;48.694;8.934;2023-05-21T01:17:43;19.48;;;13.90;;
67595;SDS011;54410;48.694;8.934;2023-05-21T01:20:10;22.13;;;15.15;;
67595;SDS011;54410;48.694;8.934;2023-05-21T01:22:54;17.58;;;13.73;;
67595;SDS011;54410;48.694;8.934;2023-05-21T01:25:21;21.27;;;14.82;;
67595;SDS011;54410;48.694;8.934;2023-05-21T01:27:47;21.88;;;15.32;;
67595;SDS011;54410;48.694;8.934;2023-05-21T01:30:14;23.55;;;15.52;;
67595;SDS011;54410;48.694;8.934;2023-05-21T01:35:20;21.23;;;13.82;;
67595;SDS011;54410;48.694;8.934;2023-05-21T01:40:44;20.27;;;14.98;;
67595;SDS011;54410;48.694;8.934;2023-05-21T01:43:12;22.35;;;15.55;;
67595;SDS011;54410;48.694;8.934;2023-05-21T01:45:39;24.60;;;16.17;;
67595;SDS011;54410;48.694;8.934;2023-05-21T01:48:06;26.70;;;16.17;;
67595;SDS011;54410;48.694;8.934;2023-05-21T01:50:32;21.23;;;15.32;;
67595;SDS011;54410;48.694;8.934;2023-05-21T01:52:59;25.90;;;15.07;;
67595;SDS011;54410;48.694;8.934;2023-05-21T01:55:25;21.10;;;15.35;;
67595;SDS011;54410;48.694;8.934;2023-05-21T01:57:52;22.05;;;15.60;;
67595;SDS011;54410;48.694;8.934;2023-05-21T02:00:19;22.15;;;16.00;;
67595;SDS011;54410;48.694;8.934;2023-05-21T02:02:45;26.55;;;15.55;;
67595;SDS011;54410;48.694;8.934;2023-05-21T02:05:11;24.33;;;15.93;;
67595;SDS011;54410;48.694;8.934;2023-05-21T02:07:37;24.98;;;16.08;;
67595;SDS011;54410;48.694;8.934;2023-05-21T02:10:04;26.05;;;16.92;;
67595;SDS011;54410;48.694;8.934;2023-05-21T02:12:30;23.70;;;15.80;;
67595;SDS011;54410;48.694;8.934;2023-05-21T02:14:56;22.08;;;16.02;;
67595;SDS011;54410;48.694;8.934;2023-05-21T02:17:22;24.55;;;16.55;;
67595;SDS011;54410;48.694;8.934;2023-05-21T02:19:48;24.90;;;17.38;;
67595;SDS011;54410;48.694;8.934;2023-05-21T02:22:14;25.55;;;17.27;;
67595;SDS011;54410;48.694;8.934;2023-05-21T02:24:40;26.08;;;17.42;;
67595;SDS011;54410;48.694;8.934;2023-05-21T02:27:06;28.20;;;17.10;;
67595;SDS011;54410;48.694;8.934;2023-05-21T02:29:34;26.20;;;18.00;;
67595;SDS011;54410;48.694;8.934;2023-05-21T02:32:00;26.48;;;17.35;;
67595;SDS011;54410;48.694;8.934;2023-05-21T02:34:26;29.35;;;17.80;;
67595;SDS011;54410;48.694;8.934;2023-05-21T02:36:54;23.08;;;16.85;;
67595;SDS011;54410;48.694;8.934;2023-05-21T02:39:20;24.60;;;17.27;;
67595;SDS011;54410;48.694;8.934;2023-05-21T02:41:46;26.88;;;17.20;;
67595;SDS011;54410;48.694;8.934;2023-05-21T02:44:12;28.42;;;18.73;;
67595;SDS011;54410;48.694;8.934;2023-05-21T02:46:38;26.40;;;17.92;;
67595;SDS011;54410;48.694;8.934;2023-05-21T02:49:03;26.13;;;17.20;;
67595;SDS011;54410;48.694;8.934;2023-05-21T02:51:29;28.27;;;18.35;;
67595;SDS011;54410;48.694;8.934;2023-05-21T02:53:55;27.95;;;17.85;;
67595;SDS011;54410;48.694;8.934;2023-05-21T02:56:21;27.23;;;17.88;;
67595;SDS011;54410;48.694;8.934;2023-05-21T02:58:47;27.98;;;18.70;;
67595;SDS011;54410;48.694;8.934;2023-05-21T03:01:13;27.95;;;17.92;;
67595;SDS011;54410;48.694;8.934;2023-05-21T03:03:39;29.60;;;18.50;;
67595;SDS011;54410;48.694;8.934;2023-05-21T03:06:05;30.60;;;18.60;;
67595;SDS011;54410;48.694;8.934;2023-05-21T03:08:34;27.25;;;18.42;;
67595;SDS011;54410;48.694;8.934;2023-05-21T03:11:01;27.20;;;18.05;;
67595;SDS011;54410;48.694;8.934;2023-05-21T03:13:26;30.95;;;18.20;;
67595;SDS011;54410;48.694;8.934;2023-05-21T03:15:52;29.38;;;18.02;;
67595;SDS011;54410;48.694;8.934;2023-05-21T03:18:21;28.33;;;17.85;;
67595;SDS011;54410;48.694;8.934;2023-05-21T03:20:47;28.40;;;18.50;;
67595;SDS011;54410;48.694;8.934;2023-05-21T03:23:13;27.98;;;17.73;;
67595;SDS011;54410;48.694;8.934;2023-05-21T03:25:39;31.27;;;20.52;;
67595;SDS011;54410;48.694;8.934;2023-05-21T03:28:05;31.13;;;18.85;;
67595;SDS011;54410;48.694;8.934;2023-05-21T03:30:33;29.98;;;18.80;;
67595;SDS011;54410;48.694;8.934;2023-05-21T03:33:00;31.63;;;18.50;;
67595;SDS011;54410;48.694;8.934;2023-05-21T03:35:27;27.90;;;18.35;;
67595;SDS011;54410;48.694;8.934;2023-05-21T03:37:52;29.73;;;19.50;;
67595;SDS011;54410;48.694;8.934;2023-05-21T03:40:18;27.17;;;18.70;;
67595;SDS011;54410;48.694;8.934;2023-05-21T03:42:45;31.25;;;19.65;;
67595;SDS011;54410;48.694;8.934;2023-05-21T03:45:11;32.17;;;19.40;;
67595;SDS011;54410;48.694;8.934;2023-05-21T03:47:37;28.40;;;19.33;;
67595;SDS011;54410;48.694;8.934;2023-05-21T03:50:03;33.10;;;20.05;;
67595;SDS011;54410;48.694;8.934;2023-05-21T03:52:30;31.27;;;20.30;;
67595;SDS011;54410;48.694;8.934;2023-05-21T03:54:55;31.67;;;21.00;;
67595;SDS011;54410;48.694;8.934;2023-05-21T03:57:21;33.85;;;19.58;;
67595;SDS011;54410;48.694;8.934;2023-05-21T03:59:47;32.30;;;19.73;;
67595;SDS011;54410;48.694;8.934;2023-05-21T04:02:13;35.53;;;21.77;;
67595;SDS011;54410;48.694;8.934;2023-05-21T04:04:39;31.75;;;20.20;;
67595;SDS011;54410;48.694;8.934;2023-05-21T04:07:05;35.55;;;19.95;;
67595;SDS011;54410;48.694;8.934;2023-05-21T04:09:38;31.85;;;19.80;;
67595;SDS011;54410;48.694;8.934;2023-05-21T04:12:04;32.60;;;20.23;;
67595;SDS011;54410;48.694;8.934;2023-05-21T04:14:31;33.03;;;20.63;;
67595;SDS011;54410;48.694;8.934;2023-05-21T04:16:58;32.05;;;19.45;;
67595;SDS011;54410;48.694;8.934;2023-05-21T04:19:24;32.67;;;20.50;;
67595;SDS011;54410;48.694;8.934;2023-05-21T04:21:50;32.88;;;20.48;;
67595;SDS011;54410;48.694;8.934;2023-05-21T04:24:16;29.90;;;19.98;;
67595;SDS011;54410;48.694;8.934;2023-05-21T04:26:42;30.35;;;20.45;;
67595;SDS011;54410;48.694;8.934;2023-05-21T04:29:08;29.33;;;19.52;;
67595;SDS011;54410;48.694;8.934;2023-05-21T04:31:34;32.75;;;19.98;;
67595;SDS011;54410;48.694;8.934;2023-05-21T04:34:00;32.20;;;19.30;;
67595;SDS011;54410;48.694;8.934;2023-05-21T04:36:27;32.50;;;20.08;;
67595;SDS011;54410;48.694;8.934;2023-05-21T04:38:54;29.00;;;18.73;;
67595;SDS011;54410;48.694;8.934;2023-05-21T04:41:20;27.63;;;18.60;;
67595;SDS011;54410;48.694;8.934;2023-05-21T04:43:46;27.95;;;19.38;;
67595;SDS011;54410;48.694;8.934;2023-05-21T04:46:12;28.80;;;18.52;;
67595;SDS011;54410;48.694;8.934;2023-05-21T04:48:38;34.15;;;19.52;;
67595;SDS011;54410;48.694;8.934;2023-05-21T04:51:05;29.48;;;18.88;;
67595;SDS011;54410;48.694;8.934;2023-05-21T04:53:31;28.52;;;19.23;;
67595;SDS011;54410;48.694;8.934;2023-05-21T04:55:57;31.55;;;19.20;;
67595;SDS011;54410;48.694;8.934;2023-05-21T04:58:23;27.85;;;18.73;;
67595;SDS011;54410;48.694;8.934;2023-05-21T05:00:50;29.00;;;18.50;;
67595;SDS011;54410;48.694;8.934;2023-05-21T05:03:17;27.60;;;17.98;;
67595;SDS011;54410;48.694;8.934;2023-05-21T05:05:43;30.60;;;18.58;;
67595;SDS011;54410;48.694;8.934;2023-05-21T05:08:09;30.83;;;18.60;;
67595;SDS011;54410;48.694;8.934;2023-05-21T05:10:36;27.33;;;19.02;;
67595;SDS011;54410;48.694;8.934;2023-05-21T05:13:02;25.90;;;18.15;;
67595;SDS011;54410;48.694;8.934;2023-05-21T05:15:28;26.60;;;17.13;;
67595;SDS011;54410;48.694;8.934;2023-05-21T05:17:54;27.33;;;18.08;;
67595;SDS011;54410;48.694;8.934;2023-05-21T05:20:20;26.98;;;17.90;;
67595;SDS011;54410;48.694;8.934;2023-05-21T05:22:46;24.75;;;17.27;;
67595;SDS011;54410;48.694;8.934;2023-05-21T05:25:12;23.67;;;16.90;;
67595;SDS011;54410;48.694;8.934;2023-05-21T05:27:38;27.60;;;17.98;;
67595;SDS011;54410;48.694;8.934;2023-05-21T05:30:04;26.23;;;17.50;;
67595;SDS011;54410;48.694;8.934;2023-05-21T05:32:31;25.42;;;17.27;;
67595;SDS011;54410;48.694;8.934;2023-05-21T05:34:57;22.42;;;16.67;;
67595;SDS011;54410;48.694;8.934;2023-05-21T05:37:23;25.17;;;16.05;;
67595;SDS011;54410;48.694;8.934;2023-05-21T05:39:49;24.52;;;17.10;;
67595;SDS011;54410;48.694;8.934;2023-05-21T05:42:14;21.40;;;15.85;;
67595;SDS011;54410;48.694;8.934;2023-05-21T05:44:40;25.00;;;17.05;;
67595;SDS011;54410;48.694;8.934;2023-05-21T05:47:06;23.10;;;16.33;;
67595;SDS011;54410;48.694;8.934;2023-05-21T05:49:34;21.98;;;16.80;;
67595;SDS011;54410;48.694;8.934;2023-05-21T05:52:00;21.55;;;15.88;;
67595;SDS011;54410;48.694;8.934;2023-05-21T05:54:26;19.15;;;14.05;;
67595;SDS011;54410;48.694;8.934;2023-05-21T05:56:52;22.42;;;15.18;;
67595;SDS011;54410;48.694;8.934;2023-05-21T05:59:18;19.27;;;14.57;;
67595;SDS011;54410;48.694;8.934;2023-05-21T06:01:43;18.48;;;13.77;;
67595;SDS011;54410;48.694;8.934;2023-05-21T06:04:09;18.13;;;13.32;;
67595;SDS011;54410;48.694;8.934;2023-05-21T06:06:35;19.58;;;13.60;;
67595;SDS011;54410;48.694;8.934;2023-05-21T06:09:01;17.10;;;13.45;;
67595;SDS011;54410;48.694;8.934;2023-05-21T06:11:27;18.13;;;13.55;;
67595;SDS011;54410;48.694;8.934;2023-05-21T06:13:52;16.63;;;13.10;;
67595;SDS011;54410;48.694;8.934;2023-05-21T06:16:18;17.48;;;12.80;;
67595;SDS011;54410;48.694;8.934;2023-05-21T06:18:44;18.13;;;13.15;;
67595;SDS011;54410;48.694;8.934;2023-05-21T06:21:10;19.02;;;12.20;;
67595;SDS011;54410;48.694;8.934;2023-05-21T06:23:36;13.90;;;11.77;;
67595;SDS011;54410;48.694;8.934;2023-05-21T06:26:02;13.60;;;11.27;;
67595;SDS011;54410;48.694;8.934;2023-05-21T06:28:29;14.85;;;11.68;;
67595;SDS011;54410;48.694;8.934;2023-05-21T06:30:55;15.02;;;11.00;;
67595;SDS011;54410;48.694;8.934;2023-05-21T06:33:21;14.65;;;11.00;;
67595;SDS011;54410;48.694;8.934;2023-05-21T06:35:47;12.48;;;10.68;;
67595;SDS011;54410;48.694;8.934;2023-05-21T06:38:13;16.70;;;11.65;;
67595;SDS011;54410;48.694;8.934;2023-05-21T06:40:38;13.48;;;11.10;;
67595;SDS011;54410;48.694;8.934;2023-05-21T06:43:04;11.18;;;10.07;;
67595;SDS011;54410;48.694;8.934;2023-05-21T06:45:30;11.48;;;9.90;;
67595;SDS011;54410;48.694;8.934;2023-05-21T06:47:55;14.05;;;10.57;;
67595;SDS011;54410;48.694;8.934;2023-05-21T06:50:21;12.23;;;10.55;;
67595;SDS011;54410;48.694;8.934;2023-05-21T06:52:47;11.00;;;9.85;;
67595;SDS011;54410;48.694;8.934;2023-05-21T06:55:13;11.65;;;10.43;;
67595;SDS011;54410;48.694;8.934;2023-05-21T06:57:39;13.05;;;10.77;;
67595;SDS011;54410;48.694;8.934;2023-05-21T07:00:05;11.95;;;10.43;;
67595;SDS011;54410;48.694;8.934;2023-05-21T07:02:33;15.25;;;11.60;;
67595;SDS011;54410;48.694;8.934;2023-05-21T07:04:59;10.95;;;9.35;;
67595;SDS011;54410;48.694;8.934;2023-05-21T07:07:24;13.00;;;9.68;;
67595;SDS011;54410;48.694;8.934;2023-05-21T07:09:51;11.02;;;9.43;;
67595;SDS011;54410;48.694;8.934;2023-05-21T07:12:16;11.95;;;9.20;;
67595;SDS011;54410;48.694;8.934;2023-05-21T07:14:42;11.50;;;9.63;;
67595;SDS011;54410;48.694;8.934;2023-05-21T07:17:07;11.32;;;9.48;;
67595;SDS011;54410;48.694;8.934;2023-05-21T07:19:33;11.05;;;9.73;;
67595;SDS011;54410;48.694;8.934;2023-05-21T07:21:59;11.25;;;9.38;;
67595;SDS011;54410;48.694;8.934;2023-05-21T07:24:25;12.68;;;10.07;;
67595;SDS011;54410;48.694;8.934;2023-05-21T07:26:51;10.68;;;9.55;;
67595;SDS011;54410;48.694;8.934;2023-05-21T07:29:18;9.05;;;8.07;;
67595;SDS011;54410;48.694;8.934;2023-05-21T07:31:43;10.75;;;8.55;;
67595;SDS011;54410;48.694;8.934;2023-05-21T07:34:09;9.95;;;8.95;;
67595;SDS011;54410;48.694;8.934;2023-05-21T07:36:35;10.40;;;8.55;;
67595;SDS011;54410;48.694;8.934;2023-05-21T07:39:00;9.90;;;8.65;;
67595;SDS011;54410;48.694;8.934;2023-05-21T07:41:26;9.13;;;8.20;;
67595;SDS011;54410;48.694;8.934;2023-05-21T07:43:52;7.75;;;6.95;;
67595;SDS011;54410;48.694;8.934;2023-05-21T07:46:18;7.90;;;7.10;;
67595;SDS011;54410;48.694;8.934;2023-05-21T07:48:43;7.97;;;7.18;;
67595;SDS011;54410;48.694;8.934;2023-05-21T07:51:10;10.25;;;8.23;;
67595;SDS011;54410;48.694;8.934;2023-05-21T07:53:37;8.15;;;7.35;;
67595;SDS011;54410;48.694;8.934;2023-05-21T07:56:03;9.40;;;8.20;;
67595;SDS011;54410;48.694;8.934;2023-05-21T07:58:29;8.63;;;7.10;;
67595;SDS011;54410;48.694;8.934;2023-05-21T08:00:55;8.15;;;7.43;;
67595;SDS011;54410;48.694;8.934;2023-05-21T08:03:21;10.32;;;7.93;;
67595;SDS011;54410;48.694;8.934;2023-05-21T08:05:47;8.90;;;8.00;;
67595;SDS011;54410;48.694;8.934;2023-05-21T08:08:19;9.07;;;7.40;;
67595;SDS011;54410;48.694;8.934;2023-05-21T08:10:46;8.52;;;7.63;;
67595;SDS011;54410;48.694;8.934;2023-05-21T08:13:11;7.25;;;6.53;;
67595;SDS011;54410;48.694;8.934;2023-05-21T08:15:39;8.43;;;7.40;;
67595;SDS011;54410;48.694;8.934;2023-05-21T08:18:05;7.75;;;6.95;;
67595;SDS011;54410;48.694;8.934;2023-05-21T08:20:31;7.65;;;6.85;;
67595;SDS011;54410;48.694;8.934;2023-05-21T08:22:57;7.60;;;6.78;;
67595;SDS011;54410;48.694;8.934;2023-05-21T08:25:24;9.82;;;7.15;;
67595;SDS011;54410;48.694;8.934;2023-05-21T08:27:50;8.35;;;7.28;;
67595;SDS011;54410;48.694;8.934;2023-05-21T08:30:16;7.40;;;6.70;;
67595;SDS011;54410;48.694;8.934;2023-05-21T08:32:42;10.93;;;7.45;;
67595;SDS011;54410;48.694;8.934;2023-05-21T08:35:07;10.23;;;7.80;;
67595;SDS011;54410;48.694;8.934;2023-05-21T08:37:33;9.25;;;6.78;;
67595;SDS011;54410;48.694;8.934;2023-05-21T08:40:00;9.25;;;6.78;;
67595;SDS011;54410;48.694;8.934;2023-05-21T08:42:29;6.75;;;5.90;;
67595;SDS011;54410;48.694;8.934;2023-05-21T08:45:07;7.93;;;7.13;;
67595;SDS011;54410;48.694;8.934;2023-05-21T08:47:43;7.88;;;6.90;;
67595;SDS011;54410;48.694;8.934;2023-05-21T08:50:11;10.23;;;7.60;;
67595;SDS011;54410;48.694;8.934;2023-05-21T08:52:38;7.03;;;6.32;;
67595;SDS011;54410;48.694;8.934;2023-05-21T08:55:05;7.03;;;6.32;;
67595;SDS011;54410;48.694;8.934;2023-05-21T08:57:31;6.75;;;5.70;;
67595;SDS011;54410;48.694;8.934;2023-05-21T08:59:58;11.02;;;6.85;;
67595;SDS011;54410;48.694;8.934;2023-05-21T09:02:28;7.78;;;6.50;;
67595;SDS011;54410;48.694;8.934;2023-05-21T09:04:58;6.88;;;6.15;;
67595;SDS011;54410;48.694;8.934;2023-05-21T09:07:27;7.25;;;6.40;;
67595;SDS011;54410;48.694;8.934;2023-05-21T09:09:54;9.93;;;7.22;;
67595;SDS011;54410;48.694;8.934;2023-05-21T09:12:27;7.45;;;6.75;;
67595;SDS011;54410;48.694;8.934;2023-05-21T09:14:53;8.07;;;7.28;;
67595;SDS011;54410;48.694;8.934;2023-05-21T09:17:22;7.93;;;7.10;;
67595;SDS011;54410;48.694;8.934;2023-05-21T09:22:47;8.90;;;6.97;;
67595;SDS011;54410;48.694;8.934;2023-05-21T09:25:14;8.63;;;7.07;;
67595;SDS011;54410;48.694;8.934;2023-05-21T09:27:40;8.05;;;7.13;;
67595;SDS011;54410;48.694;8.934;2023-05-21T09:30:09;8.82;;;6.97;;
67595;SDS011;54410;48.694;8.934;2023-05-21T09:32:36;8.57;;;7.68;;
67595;SDS011;54410;48.694;8.934;2023-05-21T09:35:11;9.00;;;7.45;;
67595;SDS011;54410;48.694;8.934;2023-05-21T09:37:43;8.93;;;7.10;;
67595;SDS011;54410;48.694;8.934;2023-05-21T09:42:38;7.13;;;6.13;;
67595;SDS011;54410;48.694;8.934;2023-05-21T09:45:05;8.60;;;6.82;;
67595;SDS011;54410;48.694;8.934;2023-05-21T09:47:31;8.00;;;6.97;;
67595;SDS011;54410;48.694;8.934;2023-05-21T09:49:57;8.25;;;7.25;;
67595;SDS011;54410;48.694;8.934;2023-05-21T09:52:23;8.68;;;7.20;;
67595;SDS011;54410;48.694;8.934;2023-05-21T09:54:50;7.47;;;6.63;;
67595;SDS011;54410;48.694;8.934;2023-05-21T09:57:21;6.65;;;5.95;;
67595;SDS011;54410;48.694;8.934;2023-05-21T09:59:48;7.82;;;6.75;;
67595;SDS011;54410;48.694;8.934;2023-05-21T10:02:21;11.73;;;7.30;;
67595;SDS011;54410;48.694;8.934;2023-05-21T10:04:50;7.05;;;6.35;;
67595;SDS011;54410;48.694;8.934;2023-05-21T10:07:18;7.15;;;6.35;;
67595;SDS011;54410;48.694;8.934;2023-05-21T10:09:54;9.25;;;7.18;;
67595;SDS011;54410;48.694;8.934;2023-05-21T10:12:21;8.63;;;7.72;;
67595;SDS011;54410;48.694;8.934;2023-05-21T10:14:50;8.90;;;8.00;;
67595;SDS011;54410;48.694;8.934;2023-05-21T10:17:16;8.45;;;7.65;;
67595;SDS011;54410;48.694;8.934;2023-05-21T10:19:43;10.05;;;7.50;;
67595;SDS011;54410;48.694;8.934;2023-05-21T10:22:09;7.93;;;7.13;;
67595;SDS011;54410;48.694;8.934;2023-05-21T10:24:34;9.30;;;8.35;;
67595;SDS011;54410;48.694;8.934;2023-05-21T10:27:01;10.07;;;8.95;;
67595;SDS011;54410;48.694;8.934;2023-05-21T10:29:27;15.30;;;9.32;;
67595;SDS011;54410;48.694;8.934;2023-05-21T10:31:55;11.05;;;9.02;;
67595;SDS011;54410;48.694;8.934;2023-05-21T10:34:21;10.38;;;8.75;;
67595;SDS011;54410;48.694;8.934;2023-05-21T10:36:48;11.18;;;8.45;;
67595;SDS011;54410;48.694;8.934;2023-05-21T10:39:15;9.13;;;7.82;;
67595;SDS011;54410;48.694;8.934;2023-05-21T10:41:45;12.60;;;8.13;;
67595;SDS011;54410;48.694;8.934;2023-05-21T10:47:02;10.05;;;8.02;;
67595;SDS011;54410;48.694;8.934;2023-05-21T10:49:53;9.85;;;7.22;;
67595;SDS011;54410;48.694;8.934;2023-05-21T10:55:20;10.77;;;8.23;;
67595;SDS011;54410;48.694;8.934;2023-05-21T10:57:56;9.60;;;8.40;;
67595;SDS011;54410;48.694;8.934;2023-05-21T11:00:31;9.50;;;7.88;;
67595;SDS011;54410;48.694;8.934;2023-05-21T11:02:57;10.60;;;7.90;;
67595;SDS011;54410;48.694;8.934;2023-05-21T11:05:37;9.10;;;7.68;;
67595;SDS011;54410;48.694;8.934;2023-05-21T11:08:04;10.20;;;8.23;;
67595;SDS011;54410;48.694;8.934;2023-05-21T11:10:39;9.27;;;7.80;;
67595;SDS011;54410;48.694;8.934;2023-05-21T11:13:14;11.27;;;7.53;;
67595;SDS011;54410;48.694;8.934;2023-05-21T11:19:14;9.18;;;7.13;;
67595;SDS011;54410;48.694;8.934;2023-05-21T11:21:12;8.25;;;7.32;;
67595;SDS011;54410;48.694;8.934;2023-05-21T11:23:51;10.25;;;7.53;;
67595;SDS011;54410;48.694;8.934;2023-05-21T11:26:17;8.95;;;7.75;;
67595;SDS011;54410;48.694;8.934;2023-05-21T11:28:43;8.48;;;7.55;;
67595;SDS011;54410;48.694;8.934;2023-05-21T11:31:25;11.02;;;8.20;;
67595;SDS011;54410;48.694;8.934;2023-05-21T11:34:37;9.50;;;7.47;;
67595;SDS011;54410;48.694;8.934;2023-05-21T11:36:38;9.73;;;7.50;;
67595;SDS011;54410;48.694;8.934;2023-05-21T11:39:15;14.90;;;7.07;;
67595;SDS011;54410;48.694;8.934;2023-05-21T11:41:59;8.73;;;7.13;;
67595;SDS011;54410;48.694;8.934;2023-05-21T11:47:04;8.18;;;7.13;;
67595;SDS011;54410;48.694;8.934;2023-05-21T11:49:31;8.02;;;6.85;;
67595;SDS011;54410;48.694;8.934;2023-05-21T11:51:58;9.50;;;7.55;;
67595;SDS011;54410;48.694;8.934;2023-05-21T11:54:25;8.82;;;6.80;;
67595;SDS011;54410;48.694;8.934;2023-05-21T11:56:51;8.05;;;6.78;;
67595;SDS011;54410;48.694;8.934;2023-05-21T11:59:19;9.68;;;7.03;;
67595;SDS011;54410;48.694;8.934;2023-05-21T12:01:45;6.65;;;5.82;;
67595;SDS011;54410;48.694;8.934;2023-05-21T12:04:11;8.23;;;6.68;;
67595;SDS011;54410;48.694;8.934;2023-05-21T12:06:37;8.30;;;6.93;;
67595;SDS011;54410;48.694;8.934;2023-05-21T12:09:06;6.68;;;5.32;;
67595;SDS011;54410;48.694;8.934;2023-05-21T12:11:33;6.45;;;5.30;;
67595;SDS011;54410;48.694;8.934;2023-05-21T12:13:59;8.30;;;5.88;;
67595;SDS011;54410;48.694;8.934;2023-05-21T12:16:25;6.90;;;5.43;;
67595;SDS011;54410;48.694;8.934;2023-05-21T12:18:52;6.50;;;5.72;;
67595;SDS011;54410;48.694;8.934;2023-05-21T12:21:18;6.18;;;5.50;;
67595;SDS011;54410;48.694;8.934;2023-05-21T12:23:44;5.95;;;5.07;;
67595;SDS011;54410;48.694;8.934;2023-05-21T12:26:10;10.45;;;6.03;;
67595;SDS011;54410;48.694;8.934;2023-05-21T12:28:37;6.40;;;5.28;;
67595;SDS011;54410;48.694;8.934;2023-05-21T12:31:04;5.93;;;5.32;;
67595;SDS011;54410;48.694;8.934;2023-05-21T12:33:33;6.55;;;5.70;;
67595;SDS011;54410;48.694;8.934;2023-05-21T12:35:59;6.65;;;4.85;;
67595;SDS011;54410;48.694;8.934;2023-05-21T12:38:29;5.68;;;5.00;;
67595;SDS011;54410;48.694;8.934;2023-05-21T12:40:55;12.00;;;5.97;;
67595;SDS011;54410;48.694;8.934;2023-05-21T12:43:21;6.97;;;5.57;;
67595;SDS011;54410;48.694;8.934;2023-05-21T12:45:47;7.45;;;5.47;;
67595;SDS011;54410;48.694;8.934;2023-05-21T12:48:13;5.82;;;4.95;;
67595;SDS011;54410;48.694;8.934;2023-05-21T12:50:40;5.65;;;5.03;;
67595;SDS011;54410;48.694;8.934;2023-05-21T12:53:07;6.47;;;5.80;;
67595;SDS011;54410;48.694;8.934;2023-05-21T12:55:34;6.10;;;5.20;;
67595;SDS011;54410;48.694;8.934;2023-05-21T12:58:04;6.63;;;4.63;;
67595;SDS011;54410;48.694;8.934;2023-05-21T13:00:32;5.95;;;5.35;;
67595;SDS011;54410;48.694;8.934;2023-05-21T13:02:58;7.00;;;5.22;;
67595;SDS011;54410;48.694;8.934;2023-05-21T13:05:25;6.05;;;5.45;;
67595;SDS011;54410;48.694;8.934;2023-05-21T13:07:51;6.20;;;5.32;;
67595;SDS011;54410;48.694;8.934;2023-05-21T13:10:17;5.50;;;4.65;;
67595;SDS011;54410;48.694;8.934;2023-05-21T13:12:43;7.00;;;5.30;;
67595;SDS011;54410;48.694;8.934;2023-05-21T13:15:09;5.40;;;4.90;;
67595;SDS011;54410;48.694;8.934;2023-05-21T13:17:35;6.18;;;5.05;;
67595;SDS011;54410;48.694;8.934;2023-05-21T13:20:18;5.72;;;5.13;;
67595;SDS011;54410;48.694;8.934;2023-05-21T13:22:48;6.38;;;4.88;;
67595;SDS011;54410;48.694;8.934;2023-05-21T13:25:15;5.10;;;4.38;;
67595;SDS011;54410;48.694;8.934;2023-05-21T13:27:44;6.22;;;5.53;;
67595;SDS011;54410;48.694;8.934;2023-05-21T13:30:10;7.63;;;5.32;;
67595;SDS011;54410;48.694;8.934;2023-05-21T13:32:37;7.45;;;4.90;;
67595;SDS011;54410;48.694;8.934;2023-05-21T13:35:03;6.75;;;5.00;;
67595;SDS011;54410;48.694;8.934;2023-05-21T13:37:29;6.25;;;4.47;;
67595;SDS011;54410;48.694;8.934;2023-05-21T13:40:00;5.90;;;4.97;;
67595;SDS011;54410;48.694;8.934;2023-05-21T13:42:25;5.32;;;4.60;;
67595;SDS011;54410;48.694;8.934;2023-05-21T13:44:51;5.60;;;4.53;;
67595;SDS011;54410;48.694;8.934;2023-05-21T13:47:17;5.03;;;4.53;;
67595;SDS011;54410;48.694;8.934;2023-05-21T13:49:43;7.25;;;5.05;;
67595;SDS011;54410;48.694;8.934;2023-05-21T13:52:10;6.18;;;5.57;;
67595;SDS011;54410;48.694;8.934;2023-05-21T13:54:36;5.43;;;4.45;;
67595;SDS011;54410;48.694;8.934;2023-05-21T13:57:02;5.88;;;5.28;;
67595;SDS011;54410;48.694;8.934;2023-05-21T13:59:28;6.18;;;4.72;;
67595;SDS011;54410;48.694;8.934;2023-05-21T14:01:54;6.32;;;4.80;;
67595;SDS011;54410;48.694;8.934;2023-05-21T14:04:21;5.95;;;5.10;;
67595;SDS011;54410;48.694;8.934;2023-05-21T14:06:48;5.78;;;4.40;;
67595;SDS011;54410;48.694;8.934;2023-05-21T14:09:14;5.80;;;4.90;;
67595;SDS011;54410;48.694;8.934;2023-05-21T14:11:40;7.82;;;4.60;;
67595;SDS011;54410;48.694;8.934;2023-05-21T14:14:06;7.28;;;5.15;;
67595;SDS011;54410;48.694;8.934;2023-05-21T14:16:32;5.25;;;4.63;;
67595;SDS011;54410;48.694;8.934;2023-05-21T14:18:58;6.57;;;5.15;;
67595;SDS011;54410;48.694;8.934;2023-05-21T14:21:24;6.88;;;4.72;;
67595;SDS011;54410;48.694;8.934;2023-05-21T14:23:50;7.82;;;5.10;;
67595;SDS011;54410;48.694;8.934;2023-05-21T14:26:16;5.65;;;4.53;;
67595;SDS011;54410;48.694;8.934;2023-05-21T14:28:43;6.75;;;5.13;;
67595;SDS011;54410;48.694;8.934;2023-05-21T14:31:09;7.20;;;5.40;;
67595;SDS011;54410;48.694;8.934;2023-05-21T14:33:35;5.25;;;4.63;;
67595;SDS011;54410;48.694;8.934;2023-05-21T14:36:02;8.02;;;4.72;;
67595;SDS011;54410;48.694;8.934;2023-05-21T14:38:28;6.20;;;4.82;;
67595;SDS011;54410;48.694;8.934;2023-05-21T14:40:54;5.50;;;4.68;;
67595;SDS011;54410;48.694;8.934;2023-05-21T14:43:20;5.13;;;4.45;;
67595;SDS011;54410;48.694;8.934;2023-05-21T14:45:47;6.05;;;4.75;;
67595;SDS011;54410;48.694;8.934;2023-05-21T14:48:15;4.95;;;4.43;;
67595;SDS011;54410;48.694;8.934;2023-05-21T14:50:42;5.28;;;4.18;;
67595;SDS011;54410;48.694;8.934;2023-05-21T14:53:08;5.47;;;4.70;;
67595;SDS011;54410;48.694;8.934;2023-05-21T14:55:35;5.63;;;4.93;;